sensor_id;sensor_type;location;lat;lon;timestamp;temperature;humidity
37956;DHT22;23776;51.592;7.180;2024-03-08T00:02:03;3.90;92.00
37956;DHT22;23776;51.592;7.180;2024-03-08T00:04:29;3.80;99.90
37956;DHT22;23776;51.592;7.180;2024-03-08T00:06:54;3.80;99.90
37956;DHT22;23776;51.592;7.180;2024-03-08T00:09:20;3.70;99.90
37956;DHT22;23776;51.592;7.180;2024-03-08T00:11:46;3.70;99.90
37956;DHT22;23776;51.592;7.180;2024-03-08T00:14:12;3.70;99.90
37956;DHT22;23776;51.592;7.180;2024-03-08T00:16:38;6.30;99.90
37956;DHT22;23776;51.592;7.180;2024-03-08T00:19:04;3.70;99.90
37956;DHT22;23776;51.592;7.180;2024-03-08T00:21:29;3.60;88.80
37956;DHT22;23776;51.592;7.180;2024-03-08T00:23:55;3.70;9.80
37956;DHT22;23776;51.592;7.180;2024-03-08T00:26:21;3.70;98.60
37956;DHT22;23776;51.592;7.180;2024-03-08T00:28:48;3.60;99.90
37956;DHT22;23776;51.592;7.180;2024-03-08T00:31:14;3.60;99.90
37956;DHT22;23776;51.592;7.180;2024-03-08T00:33:42;3.60;99.90
37956;DHT22;23776;51.592;7.180;2024-03-08T00:36:08;3.60;99.90
37956;DHT22;23776;51.592;7.180;2024-03-08T00:38:33;3.50;99.90
37956;DHT22;23776;51.592;7.180;2024-03-08T00:40:59;3.50;99.90
37956;DHT22;23776;51.592;7.180;2024-03-08T00:43:25;3.50;80.00
37956;DHT22;23776;51.592;7.180;2024-03-08T00:45:51;3.50;99.90
37956;DHT22;23776;51.592;7.180;2024-03-08T00:48:17;3.40;99.90
37956;DHT22;23776;51.592;7.180;2024-03-08T00:50:42;3.40;99.90
37956;DHT22;23776;51.592;7.180;2024-03-08T00:53:11;3.40;99.90
37956;DHT22;23776;51.592;7.180;2024-03-08T00:55:37;3.50;1.00
37956;DHT22;23776;51.592;7.180;2024-03-08T00:58:03;3.50;99.90
37956;DHT22;23776;51.592;7.180;2024-03-08T01:00:29;3.40;99.90
37956;DHT22;23776;51.592;7.180;2024-03-08T01:02:55;3.40;99.90
37956;DHT22;23776;51.592;7.180;2024-03-08T01:05:21;3.30;1.00
37956;DHT22;23776;51.592;7.180;2024-03-08T01:07:46;3.30;1.00
37956;DHT22;23776;51.592;7.180;2024-03-08T01:10:12;3.40;59.80
37956;DHT22;23776;51.592;7.180;2024-03-08T01:12:38;3.30;1.00
37956;DHT22;23776;51.592;7.180;2024-03-08T01:15:05;3.30;1.00
37956;DHT22;23776;51.592;7.180;2024-03-08T01:17:30;3.30;1.00
37956;DHT22;23776;51.592;7.180;2024-03-08T01:19:56;3.20;1.00
37956;DHT22;23776;51.592;7.180;2024-03-08T01:22:22;3.20;99.90
37956;DHT22;23776;51.592;7.180;2024-03-08T01:24:48;3.10;99.90
37956;DHT22;23776;51.592;7.180;2024-03-08T01:27:14;3.10;99.90
37956;DHT22;23776;51.592;7.180;2024-03-08T01:29:40;3.10;1.00
37956;DHT22;23776;51.592;7.180;2024-03-08T01:32:05;3.10;1.00
37956;DHT22;23776;51.592;7.180;2024-03-08T01:34:31;3.10;99.90
37956;DHT22;23776;51.592;7.180;2024-03-08T01:36:58;3.10;99.90
37956;DHT22;23776;51.592;7.180;2024-03-08T01:39:25;3.00;99.90
37956;DHT22;23776;51.592;7.180;2024-03-08T01:41:50;3.10;99.90
37956;DHT22;23776;51.592;7.180;2024-03-08T01:44:16;3.00;1.00
37956;DHT22;23776;51.592;7.180;2024-03-08T01:46:45;3.00;99.90
37956;DHT22;23776;51.592;7.180;2024-03-08T01:49:12;3.00;1.00
37956;DHT22;23776;51.592;7.180;2024-03-08T01:51:39;3.00;99.90
37956;DHT22;23776;51.592;7.180;2024-03-08T01:54:05;3.00;99.90
37956;DHT22;23776;51.592;7.180;2024-03-08T01:56:32;3.00;1.00
37956;DHT22;23776;51.592;7.180;2024-03-08T01:58:59;3.00;99.90
37956;DHT22;23776;51.592;7.180;2024-03-08T02:01:25;2.90;1.00
37956;DHT22;23776;51.592;7.180;2024-03-08T02:03:51;2.90;99.90
37956;DHT22;23776;51.592;7.180;2024-03-08T02:06:16;3.00;1.00
37956;DHT22;23776;51.592;7.180;2024-03-08T02:08:44;2.90;1.00
37956;DHT22;23776;51.592;7.180;2024-03-08T02:11:10;2.90;1.00
37956;DHT22;23776;51.592;7.180;2024-03-08T02:13:36;2.90;1.00
37956;DHT22;23776;51.592;7.180;2024-03-08T02:16:02;2.90;1.00
37956;DHT22;23776;51.592;7.180;2024-03-08T02:18:31;2.90;1.00
37956;DHT22;23776;51.592;7.180;2024-03-08T02:21:01;2.80;1.00
37956;DHT22;23776;51.592;7.180;2024-03-08T02:23:28;2.80;1.00
37956;DHT22;23776;51.592;7.180;2024-03-08T02:25:55;2.80;1.00
37956;DHT22;23776;51.592;7.180;2024-03-08T02:28:22;2.70;85.80
37956;DHT22;23776;51.592;7.180;2024-03-08T02:30:49;2.70;80.30
37956;DHT22;23776;51.592;7.180;2024-03-08T02:33:16;2.80;99.90
37956;DHT22;23776;51.592;7.180;2024-03-08T02:35:46;2.70;99.90
37956;DHT22;23776;51.592;7.180;2024-03-08T02:38:16;2.70;99.90
37956;DHT22;23776;51.592;7.180;2024-03-08T02:40:43;2.80;99.90
37956;DHT22;23776;51.592;7.180;2024-03-08T02:43:09;2.80;99.90
37956;DHT22;23776;51.592;7.180;2024-03-08T02:45:35;2.70;1.00
37956;DHT22;23776;51.592;7.180;2024-03-08T02:48:01;2.80;1.00
37956;DHT22;23776;51.592;7.180;2024-03-08T02:50:26;2.80;99.90
37956;DHT22;23776;51.592;7.180;2024-03-08T02:52:52;2.70;99.90
37956;DHT22;23776;51.592;7.180;2024-03-08T02:55:18;2.70;1.00
37956;DHT22;23776;51.592;7.180;2024-03-08T02:57:43;2.60;10.20
37956;DHT22;23776;51.592;7.180;2024-03-08T03:00:10;2.70;99.90
37956;DHT22;23776;51.592;7.180;2024-03-08T03:02:36;2.60;99.90
37956;DHT22;23776;51.592;7.180;2024-03-08T03:05:03;2.60;1.00
37956;DHT22;23776;51.592;7.180;2024-03-08T03:07:32;2.60;1.00
37956;DHT22;23776;51.592;7.180;2024-03-08T03:09:59;2.60;1.00
37956;DHT22;23776;51.592;7.180;2024-03-08T03:12:29;2.50;99.90
37956;DHT22;23776;51.592;7.180;2024-03-08T03:14:55;2.60;99.90
37956;DHT22;23776;51.592;7.180;2024-03-08T03:17:22;2.60;99.90
37956;DHT22;23776;51.592;7.180;2024-03-08T03:19:48;2.50;1.00
37956;DHT22;23776;51.592;7.180;2024-03-08T03:22:14;2.60;1.00
37956;DHT22;23776;51.592;7.180;2024-03-08T03:24:41;2.50;1.00
37956;DHT22;23776;51.592;7.180;2024-03-08T03:27:07;2.50;53.00
37956;DHT22;23776;51.592;7.180;2024-03-08T03:29:40;2.50;1.00
37956;DHT22;23776;51.592;7.180;2024-03-08T03:32:08;2.40;10.80
37956;DHT22;23776;51.592;7.180;2024-03-08T03:34:34;2.40;68.20
37956;DHT22;23776;51.592;7.180;2024-03-08T03:37:03;2.50;1.00
37956;DHT22;23776;51.592;7.180;2024-03-08T03:39:30;2.50;99.90
37956;DHT22;23776;51.592;7.180;2024-03-08T03:42:00;2.50;99.90
37956;DHT22;23776;51.592;7.180;2024-03-08T03:44:27;2.50;1.00
37956;DHT22;23776;51.592;7.180;2024-03-08T03:46:53;2.50;99.90
37956;DHT22;23776;51.592;7.180;2024-03-08T03:49:19;4.10;99.90
37956;DHT22;23776;51.592;7.180;2024-03-08T03:51:44;2.40;1.00
37956;DHT22;23776;51.592;7.180;2024-03-08T03:54:10;2.40;99.90
37956;DHT22;23776;51.592;7.180;2024-03-08T03:56:36;2.40;99.90
37956;DHT22;23776;51.592;7.180;2024-03-08T03:59:02;2.40;99.90
37956;DHT22;23776;51.592;7.180;2024-03-08T04:01:27;2.40;99.90
37956;DHT22;23776;51.592;7.180;2024-03-08T04:03:54;2.30;60.80
37956;DHT22;23776;51.592;7.180;2024-03-08T04:06:20;2.40;99.90
37956;DHT22;23776;51.592;7.180;2024-03-08T04:08:46;2.30;99.90
37956;DHT22;23776;51.592;7.180;2024-03-08T04:11:11;2.30;69.80
37956;DHT22;23776;51.592;7.180;2024-03-08T04:13:37;2.30;99.90
37956;DHT22;23776;51.592;7.180;2024-03-08T04:16:03;2.20;99.90
37956;DHT22;23776;51.592;7.180;2024-03-08T04:18:33;2.30;99.90
37956;DHT22;23776;51.592;7.180;2024-03-08T04:21:01;2.30;99.90
37956;DHT22;23776;51.592;7.180;2024-03-08T04:23:27;1.50;99.90
37956;DHT22;23776;51.592;7.180;2024-03-08T04:25:54;2.20;99.90
37956;DHT22;23776;51.592;7.180;2024-03-08T04:28:19;2.20;92.70
37956;DHT22;23776;51.592;7.180;2024-03-08T04:30:45;2.20;99.90
37956;DHT22;23776;51.592;7.180;2024-03-08T04:33:11;2.10;99.90
37956;DHT22;23776;51.592;7.180;2024-03-08T04:35:37;2.10;99.90
37956;DHT22;23776;51.592;7.180;2024-03-08T04:38:02;2.10;1.00
37956;DHT22;23776;51.592;7.180;2024-03-08T04:40:30;2.10;1.00
37956;DHT22;23776;51.592;7.180;2024-03-08T04:42:58;2.10;99.90
37956;DHT22;23776;51.592;7.180;2024-03-08T04:45:24;2.20;99.90
37956;DHT22;23776;51.592;7.180;2024-03-08T04:47:51;2.10;99.90
37956;DHT22;23776;51.592;7.180;2024-03-08T04:50:18;2.20;99.90
37956;DHT22;23776;51.592;7.180;2024-03-08T04:52:43;2.20;98.30
37956;DHT22;23776;51.592;7.180;2024-03-08T04:55:09;2.10;99.90
37956;DHT22;23776;51.592;7.180;2024-03-08T04:57:35;2.10;99.90
37956;DHT22;23776;51.592;7.180;2024-03-08T05:00:02;2.00;81.00
37956;DHT22;23776;51.592;7.180;2024-03-08T05:02:29;2.00;59.90
37956;DHT22;23776;51.592;7.180;2024-03-08T05:04:55;1.90;99.90
37956;DHT22;23776;51.592;7.180;2024-03-08T05:07:20;2.00;99.90
37956;DHT22;23776;51.592;7.180;2024-03-08T05:09:46;1.90;99.90
37956;DHT22;23776;51.592;7.180;2024-03-08T05:12:17;2.00;99.90
37956;DHT22;23776;51.592;7.180;2024-03-08T05:14:45;1.90;99.90
37956;DHT22;23776;51.592;7.180;2024-03-08T05:17:11;1.90;99.90
37956;DHT22;23776;51.592;7.180;2024-03-08T05:19:37;1.90;99.90
37956;DHT22;23776;51.592;7.180;2024-03-08T05:22:03;2.00;99.90
37956;DHT22;23776;51.592;7.180;2024-03-08T05:24:30;1.90;99.90
37956;DHT22;23776;51.592;7.180;2024-03-08T05:26:55;1.80;99.90
37956;DHT22;23776;51.592;7.180;2024-03-08T05:29:21;1.80;99.90
37956;DHT22;23776;51.592;7.180;2024-03-08T05:31:48;1.80;99.90
37956;DHT22;23776;51.592;7.180;2024-03-08T05:34:15;1.80;99.90
37956;DHT22;23776;51.592;7.180;2024-03-08T05:36:41;1.80;99.90
37956;DHT22;23776;51.592;7.180;2024-03-08T05:39:10;1.80;99.90
37956;DHT22;23776;51.592;7.180;2024-03-08T05:41:37;1.80;99.90
37956;DHT22;23776;51.592;7.180;2024-03-08T05:44:03;1.80;99.90
37956;DHT22;23776;51.592;7.180;2024-03-08T05:46:29;1.80;99.90
37956;DHT22;23776;51.592;7.180;2024-03-08T05:48:54;1.80;99.90
37956;DHT22;23776;51.592;7.180;2024-03-08T05:51:20;1.80;99.90
37956;DHT22;23776;51.592;7.180;2024-03-08T05:53:47;1.80;99.90
37956;DHT22;23776;51.592;7.180;2024-03-08T05:56:13;1.80;99.90
37956;DHT22;23776;51.592;7.180;2024-03-08T05:58:38;1.70;99.90
37956;DHT22;23776;51.592;7.180;2024-03-08T06:01:04;1.70;99.90
37956;DHT22;23776;51.592;7.180;2024-03-08T06:03:33;1.60;99.90
37956;DHT22;23776;51.592;7.180;2024-03-08T06:05:59;1.70;99.90
37956;DHT22;23776;51.592;7.180;2024-03-08T06:08:25;1.70;99.90
37956;DHT22;23776;51.592;7.180;2024-03-08T06:10:55;1.70;1.00
37956;DHT22;23776;51.592;7.180;2024-03-08T06:13:21;1.70;1.00
37956;DHT22;23776;51.592;7.180;2024-03-08T06:15:47;1.70;1.00
37956;DHT22;23776;51.592;7.180;2024-03-08T06:18:12;1.70;1.00
37956;DHT22;23776;51.592;7.180;2024-03-08T06:20:38;1.70;1.00
37956;DHT22;23776;51.592;7.180;2024-03-08T06:23:03;1.70;99.90
37956;DHT22;23776;51.592;7.180;2024-03-08T06:25:29;1.70;1.00
37956;DHT22;23776;51.592;7.180;2024-03-08T06:27:55;1.70;1.00
37956;DHT22;23776;51.592;7.180;2024-03-08T06:30:20;1.80;99.90
37956;DHT22;23776;51.592;7.180;2024-03-08T06:32:46;1.80;99.90
37956;DHT22;23776;51.592;7.180;2024-03-08T06:35:12;1.80;99.90
37956;DHT22;23776;51.592;7.180;2024-03-08T06:37:37;1.80;99.90
37956;DHT22;23776;51.592;7.180;2024-03-08T06:40:04;1.80;99.90
37956;DHT22;23776;51.592;7.180;2024-03-08T06:42:30;1.80;99.90
37956;DHT22;23776;51.592;7.180;2024-03-08T06:45:00;1.80;99.90
37956;DHT22;23776;51.592;7.180;2024-03-08T06:47:31;1.90;99.90
37956;DHT22;23776;51.592;7.180;2024-03-08T06:49:57;1.90;99.90
37956;DHT22;23776;51.592;7.180;2024-03-08T06:52:22;1.90;99.90
37956;DHT22;23776;51.592;7.180;2024-03-08T06:54:48;1.90;99.90
37956;DHT22;23776;51.592;7.180;2024-03-08T06:57:14;2.00;99.90
37956;DHT22;23776;51.592;7.180;2024-03-08T06:59:42;2.00;99.90
37956;DHT22;23776;51.592;7.180;2024-03-08T07:02:07;2.10;99.90
37956;DHT22;23776;51.592;7.180;2024-03-08T07:04:34;2.10;1.00
37956;DHT22;23776;51.592;7.180;2024-03-08T07:07:04;2.10;4.20
37956;DHT22;23776;51.592;7.180;2024-03-08T07:09:29;2.30;1.00
37956;DHT22;23776;51.592;7.180;2024-03-08T07:11:55;2.30;1.00
37956;DHT22;23776;51.592;7.180;2024-03-08T07:14:22;2.30;99.90
37956;DHT22;23776;51.592;7.180;2024-03-08T07:16:48;2.40;99.90
37956;DHT22;23776;51.592;7.180;2024-03-08T07:19:13;2.40;1.00
37956;DHT22;23776;51.592;7.180;2024-03-08T07:21:39;2.50;1.00
37956;DHT22;23776;51.592;7.180;2024-03-08T07:24:05;2.60;20.00
37956;DHT22;23776;51.592;7.180;2024-03-08T07:26:39;2.60;1.00
37956;DHT22;23776;51.592;7.180;2024-03-08T07:29:05;3.30;99.90
37956;DHT22;23776;51.592;7.180;2024-03-08T07:31:31;2.70;99.90
37956;DHT22;23776;51.592;7.180;2024-03-08T07:34:02;2.80;99.90
37956;DHT22;23776;51.592;7.180;2024-03-08T07:36:28;2.90;1.00
37956;DHT22;23776;51.592;7.180;2024-03-08T07:38:54;2.90;1.00
37956;DHT22;23776;51.592;7.180;2024-03-08T07:41:20;3.00;99.90
37956;DHT22;23776;51.592;7.180;2024-03-08T07:43:45;3.10;99.90
37956;DHT22;23776;51.592;7.180;2024-03-08T07:46:11;3.10;1.00
37956;DHT22;23776;51.592;7.180;2024-03-08T07:48:38;3.30;99.90
37956;DHT22;23776;51.592;7.180;2024-03-08T07:51:05;3.20;99.90
37956;DHT22;23776;51.592;7.180;2024-03-08T07:53:31;3.30;99.90
37956;DHT22;23776;51.592;7.180;2024-03-08T07:58:22;3.40;1.00
37956;DHT22;23776;51.592;7.180;2024-03-08T08:00:49;3.50;1.00
37956;DHT22;23776;51.592;7.180;2024-03-08T08:03:18;3.60;1.00
37956;DHT22;23776;51.592;7.180;2024-03-08T08:05:46;3.60;99.90
37956;DHT22;23776;51.592;7.180;2024-03-08T08:08:12;3.70;99.90
37956;DHT22;23776;51.592;7.180;2024-03-08T08:10:37;3.80;1.00
37956;DHT22;23776;51.592;7.180;2024-03-08T08:13:03;3.90;1.00
37956;DHT22;23776;51.592;7.180;2024-03-08T08:15:32;3.90;99.90
37956;DHT22;23776;51.592;7.180;2024-03-08T08:18:00;4.00;99.90
37956;DHT22;23776;51.592;7.180;2024-03-08T08:20:28;4.10;99.90
37956;DHT22;23776;51.592;7.180;2024-03-08T08:22:54;4.10;99.90
37956;DHT22;23776;51.592;7.180;2024-03-08T08:25:20;4.20;99.90
37956;DHT22;23776;51.592;7.180;2024-03-08T08:27:48;4.30;99.90
37956;DHT22;23776;51.592;7.180;2024-03-08T08:30:14;4.40;1.00
37956;DHT22;23776;51.592;7.180;2024-03-08T08:32:39;4.50;1.00
37956;DHT22;23776;51.592;7.180;2024-03-08T08:35:06;4.50;99.90
37956;DHT22;23776;51.592;7.180;2024-03-08T08:37:33;4.60;99.90
37956;DHT22;23776;51.592;7.180;2024-03-08T08:40:01;4.70;99.90
37956;DHT22;23776;51.592;7.180;2024-03-08T08:42:31;4.70;99.90
37956;DHT22;23776;51.592;7.180;2024-03-08T08:44:58;4.70;35.90
37956;DHT22;23776;51.592;7.180;2024-03-08T08:47:24;4.80;2.10
37956;DHT22;23776;51.592;7.180;2024-03-08T08:49:49;4.90;1.00
37956;DHT22;23776;51.592;7.180;2024-03-08T08:52:16;4.90;1.00
37956;DHT22;23776;51.592;7.180;2024-03-08T08:54:43;5.00;1.00
37956;DHT22;23776;51.592;7.180;2024-03-08T08:57:10;5.10;1.00
37956;DHT22;23776;51.592;7.180;2024-03-08T08:59:35;5.20;1.00
37956;DHT22;23776;51.592;7.180;2024-03-08T09:02:02;5.20;1.00
37956;DHT22;23776;51.592;7.180;2024-03-08T09:04:29;5.30;99.90
37956;DHT22;23776;51.592;7.180;2024-03-08T09:06:54;5.40;99.90
37956;DHT22;23776;51.592;7.180;2024-03-08T09:09:20;5.40;99.90
37956;DHT22;23776;51.592;7.180;2024-03-08T09:11:47;5.50;99.90
37956;DHT22;23776;51.592;7.180;2024-03-08T09:14:13;5.50;99.90
37956;DHT22;23776;51.592;7.180;2024-03-08T09:16:39;5.70;99.90
37956;DHT22;23776;51.592;7.180;2024-03-08T09:19:05;5.70;99.90
37956;DHT22;23776;51.592;7.180;2024-03-08T09:21:32;5.80;99.90
37956;DHT22;23776;51.592;7.180;2024-03-08T09:23:58;6.00;99.90
37956;DHT22;23776;51.592;7.180;2024-03-08T09:26:24;6.10;99.90
37956;DHT22;23776;51.592;7.180;2024-03-08T09:28:49;6.30;99.90
37956;DHT22;23776;51.592;7.180;2024-03-08T09:31:15;6.30;99.90
37956;DHT22;23776;51.592;7.180;2024-03-08T09:33:42;6.40;51.90
37956;DHT22;23776;51.592;7.180;2024-03-08T09:36:08;6.40;1.00
37956;DHT22;23776;51.592;7.180;2024-03-08T09:38:33;6.50;1.00
37956;DHT22;23776;51.592;7.180;2024-03-08T09:41:02;6.50;1.00
37956;DHT22;23776;51.592;7.180;2024-03-08T09:43:29;6.60;1.00
37956;DHT22;23776;51.592;7.180;2024-03-08T09:45:57;6.70;1.00
37956;DHT22;23776;51.592;7.180;2024-03-08T09:48:23;6.90;1.00
37956;DHT22;23776;51.592;7.180;2024-03-08T09:50:48;6.90;1.00
37956;DHT22;23776;51.592;7.180;2024-03-08T09:53:15;7.10;1.00
37956;DHT22;23776;51.592;7.180;2024-03-08T09:55:40;7.10;99.90
37956;DHT22;23776;51.592;7.180;2024-03-08T09:58:12;7.20;99.90
37956;DHT22;23776;51.592;7.180;2024-03-08T10:00:56;7.30;99.90
37956;DHT22;23776;51.592;7.180;2024-03-08T10:03:23;7.40;99.90
37956;DHT22;23776;51.592;7.180;2024-03-08T10:05:49;7.50;99.90
37956;DHT22;23776;51.592;7.180;2024-03-08T10:08:15;7.60;99.90
37956;DHT22;23776;51.592;7.180;2024-03-08T10:10:41;7.60;99.90
37956;DHT22;23776;51.592;7.180;2024-03-08T10:13:10;7.60;99.90
37956;DHT22;23776;51.592;7.180;2024-03-08T10:15:39;7.70;99.90
37956;DHT22;23776;51.592;7.180;2024-03-08T10:18:05;7.80;99.90
37956;DHT22;23776;51.592;7.180;2024-03-08T10:20:31;7.80;99.90
37956;DHT22;23776;51.592;7.180;2024-03-08T10:23:02;8.00;99.90
37956;DHT22;23776;51.592;7.180;2024-03-08T10:25:32;8.20;99.90
37956;DHT22;23776;51.592;7.180;2024-03-08T10:27:58;8.30;99.90
37956;DHT22;23776;51.592;7.180;2024-03-08T10:30:23;8.40;99.90
37956;DHT22;23776;51.592;7.180;2024-03-08T10:32:49;8.50;95.70
37956;DHT22;23776;51.592;7.180;2024-03-08T10:35:17;8.70;66.80
37956;DHT22;23776;51.592;7.180;2024-03-08T10:37:50;8.80;42.80
37956;DHT22;23776;51.592;7.180;2024-03-08T10:40:24;8.90;31.60
37956;DHT22;23776;51.592;7.180;2024-03-08T10:42:55;9.10;11.10
37956;DHT22;23776;51.592;7.180;2024-03-08T10:50:38;10.60;1.00
37956;DHT22;23776;51.592;7.180;2024-03-08T10:53:06;11.30;1.00
37956;DHT22;23776;51.592;7.180;2024-03-08T10:55:33;11.90;1.00
37956;DHT22;23776;51.592;7.180;2024-03-08T10:57:59;12.30;99.90
37956;DHT22;23776;51.592;7.180;2024-03-08T11:00:26;12.50;99.90
37956;DHT22;23776;51.592;7.180;2024-03-08T11:02:55;12.90;99.90
37956;DHT22;23776;51.592;7.180;2024-03-08T11:05:38;13.20;99.90
37956;DHT22;23776;51.592;7.180;2024-03-08T11:08:20;13.60;99.90
37956;DHT22;23776;51.592;7.180;2024-03-08T11:10:53;13.90;99.90
37956;DHT22;23776;51.592;7.180;2024-03-08T11:15:48;14.10;99.90
37956;DHT22;23776;51.592;7.180;2024-03-08T11:20:41;14.50;99.90
37956;DHT22;23776;51.592;7.180;2024-03-08T11:23:06;14.90;99.90
37956;DHT22;23776;51.592;7.180;2024-03-08T11:25:37;15.20;99.90
37956;DHT22;23776;51.592;7.180;2024-03-08T11:31:27;15.70;99.90
37956;DHT22;23776;51.592;7.180;2024-03-08T11:33:28;16.10;99.90
37956;DHT22;23776;51.592;7.180;2024-03-08T11:38:40;16.60;99.90
37956;DHT22;23776;51.592;7.180;2024-03-08T11:41:07;16.90;99.90
37956;DHT22;23776;51.592;7.180;2024-03-08T11:43:33;17.20;99.90
37956;DHT22;23776;51.592;7.180;2024-03-08T11:46:09;17.40;99.90
37956;DHT22;23776;51.592;7.180;2024-03-08T11:48:34;17.60;99.90
37956;DHT22;23776;51.592;7.180;2024-03-08T11:51:01;17.60;99.90
37956;DHT22;23776;51.592;7.180;2024-03-08T11:53:28;18.00;99.90
37956;DHT22;23776;51.592;7.180;2024-03-08T11:55:54;18.10;99.90
37956;DHT22;23776;51.592;7.180;2024-03-08T11:58:19;18.20;99.90
37956;DHT22;23776;51.592;7.180;2024-03-08T12:00:45;18.50;99.90
37956;DHT22;23776;51.592;7.180;2024-03-08T12:03:11;18.50;99.90
37956;DHT22;23776;51.592;7.180;2024-03-08T12:05:37;18.70;99.90
37956;DHT22;23776;51.592;7.180;2024-03-08T12:08:03;19.00;99.90
37956;DHT22;23776;51.592;7.180;2024-03-08T12:10:32;19.10;99.90
37956;DHT22;23776;51.592;7.180;2024-03-08T12:12:59;19.00;99.90
37956;DHT22;23776;51.592;7.180;2024-03-08T12:15:25;19.20;99.90
37956;DHT22;23776;51.592;7.180;2024-03-08T12:17:52;19.40;99.90
37956;DHT22;23776;51.592;7.180;2024-03-08T12:22:47;20.00;99.90
37956;DHT22;23776;51.592;7.180;2024-03-08T12:25:14;20.10;99.90
37956;DHT22;23776;51.592;7.180;2024-03-08T12:27:41;19.70;99.90
37956;DHT22;23776;51.592;7.180;2024-03-08T12:32:57;19.70;99.90
37956;DHT22;23776;51.592;7.180;2024-03-08T12:35:25;19.90;99.90
37956;DHT22;23776;51.592;7.180;2024-03-08T12:37:52;20.00;99.90
37956;DHT22;23776;51.592;7.180;2024-03-08T12:40:19;20.20;99.90
37956;DHT22;23776;51.592;7.180;2024-03-08T12:42:50;20.30;99.90
37956;DHT22;23776;51.592;7.180;2024-03-08T12:45:16;20.20;99.90
37956;DHT22;23776;51.592;7.180;2024-03-08T12:47:42;20.00;99.90
37956;DHT22;23776;51.592;7.180;2024-03-08T12:50:09;20.00;99.90
37956;DHT22;23776;51.592;7.180;2024-03-08T12:52:37;19.50;99.90
37956;DHT22;23776;51.592;7.180;2024-03-08T12:55:03;19.40;99.90
37956;DHT22;23776;51.592;7.180;2024-03-08T12:57:33;19.30;99.90
37956;DHT22;23776;51.592;7.180;2024-03-08T13:00:00;19.30;99.90
37956;DHT22;23776;51.592;7.180;2024-03-08T13:02:25;19.40;99.90
37956;DHT22;23776;51.592;7.180;2024-03-08T13:04:51;19.40;99.90
37956;DHT22;23776;51.592;7.180;2024-03-08T13:07:23;19.40;99.90
37956;DHT22;23776;51.592;7.180;2024-03-08T13:09:54;19.30;99.90
37956;DHT22;23776;51.592;7.180;2024-03-08T13:12:20;19.10;99.90
37956;DHT22;23776;51.592;7.180;2024-03-08T13:14:47;18.70;99.90
37956;DHT22;23776;51.592;7.180;2024-03-08T13:17:16;18.90;99.90
37956;DHT22;23776;51.592;7.180;2024-03-08T13:19:46;19.10;99.90
37956;DHT22;23776;51.592;7.180;2024-03-08T13:22:12;19.00;99.90
37956;DHT22;23776;51.592;7.180;2024-03-08T13:24:41;18.60;99.90
37956;DHT22;23776;51.592;7.180;2024-03-08T13:27:08;18.20;99.90
37956;DHT22;23776;51.592;7.180;2024-03-08T13:29:45;18.00;99.90
37956;DHT22;23776;51.592;7.180;2024-03-08T13:32:12;17.60;99.90
37956;DHT22;23776;51.592;7.180;2024-03-08T13:34:41;17.40;99.90
37956;DHT22;23776;51.592;7.180;2024-03-08T13:37:07;17.30;99.90
37956;DHT22;23776;51.592;7.180;2024-03-08T13:39:35;17.20;99.90
37956;DHT22;23776;51.592;7.180;2024-03-08T13:42:07;17.20;99.90
37956;DHT22;23776;51.592;7.180;2024-03-08T13:44:35;17.40;99.90
37956;DHT22;23776;51.592;7.180;2024-03-08T13:47:02;17.30;99.90
37956;DHT22;23776;51.592;7.180;2024-03-08T13:49:30;17.00;99.90
37956;DHT22;23776;51.592;7.180;2024-03-08T13:51:56;17.20;99.90
37956;DHT22;23776;51.592;7.180;2024-03-08T13:54:24;17.00;99.90
37956;DHT22;23776;51.592;7.180;2024-03-08T13:56:50;17.00;99.90
37956;DHT22;23776;51.592;7.180;2024-03-08T13:59:17;17.00;99.90
37956;DHT22;23776;51.592;7.180;2024-03-08T14:01:43;16.80;99.90
37956;DHT22;23776;51.592;7.180;2024-03-08T14:04:09;16.60;99.90
37956;DHT22;23776;51.592;7.180;2024-03-08T14:06:35;16.30;99.90
37956;DHT22;23776;51.592;7.180;2024-03-08T14:09:00;16.00;99.90
37956;DHT22;23776;51.592;7.180;2024-03-08T14:11:27;15.90;99.90
37956;DHT22;23776;51.592;7.180;2024-03-08T14:13:53;15.70;99.90
37956;DHT22;23776;51.592;7.180;2024-03-08T14:16:19;15.50;99.90
37956;DHT22;23776;51.592;7.180;2024-03-08T14:18:44;15.50;99.90
37956;DHT22;23776;51.592;7.180;2024-03-08T14:21:10;15.50;99.90
37956;DHT22;23776;51.592;7.180;2024-03-08T14:23:36;15.50;99.90
37956;DHT22;23776;51.592;7.180;2024-03-08T14:26:03;15.50;99.90
37956;DHT22;23776;51.592;7.180;2024-03-08T14:28:29;15.40;99.90
37956;DHT22;23776;51.592;7.180;2024-03-08T14:30:55;15.40;99.90
37956;DHT22;23776;51.592;7.180;2024-03-08T14:33:21;15.40;99.90
37956;DHT22;23776;51.592;7.180;2024-03-08T14:35:46;15.40;99.90
37956;DHT22;23776;51.592;7.180;2024-03-08T14:38:12;15.40;99.90
37956;DHT22;23776;51.592;7.180;2024-03-08T14:40:39;15.30;99.90
37956;DHT22;23776;51.592;7.180;2024-03-08T14:43:05;15.40;99.90
37956;DHT22;23776;51.592;7.180;2024-03-08T14:45:31;15.50;99.90
37956;DHT22;23776;51.592;7.180;2024-03-08T14:47:57;15.50;99.90
37956;DHT22;23776;51.592;7.180;2024-03-08T14:50:24;15.50;99.90
37956;DHT22;23776;51.592;7.180;2024-03-08T14:52:51;15.60;99.90
37956;DHT22;23776;51.592;7.180;2024-03-08T14:55:18;15.80;99.90
37956;DHT22;23776;51.592;7.180;2024-03-08T14:57:45;15.90;99.90
37956;DHT22;23776;51.592;7.180;2024-03-08T15:00:12;16.00;99.90
37956;DHT22;23776;51.592;7.180;2024-03-08T15:02:53;15.80;99.90
37956;DHT22;23776;51.592;7.180;2024-03-08T15:05:19;15.80;99.90
37956;DHT22;23776;51.592;7.180;2024-03-08T15:07:46;15.50;99.90
37956;DHT22;23776;51.592;7.180;2024-03-08T15:10:12;15.40;99.90
37956;DHT22;23776;51.592;7.180;2024-03-08T15:12:41;15.40;99.90
37956;DHT22;23776;51.592;7.180;2024-03-08T15:15:12;15.40;99.90
37956;DHT22;23776;51.592;7.180;2024-03-08T15:17:39;15.20;99.90
37956;DHT22;23776;51.592;7.180;2024-03-08T15:20:09;15.10;99.90
37956;DHT22;23776;51.592;7.180;2024-03-08T15:22:47;14.80;99.90
37956;DHT22;23776;51.592;7.180;2024-03-08T15:25:13;14.80;99.90
37956;DHT22;23776;51.592;7.180;2024-03-08T15:27:46;14.50;99.90
37956;DHT22;23776;51.592;7.180;2024-03-08T15:30:12;14.20;99.90
37956;DHT22;23776;51.592;7.180;2024-03-08T15:32:50;14.40;99.90
37956;DHT22;23776;51.592;7.180;2024-03-08T15:35:17;14.40;99.90
37956;DHT22;23776;51.592;7.180;2024-03-08T15:37:43;14.10;99.90
37956;DHT22;23776;51.592;7.180;2024-03-08T15:40:13;13.80;99.90
37956;DHT22;23776;51.592;7.180;2024-03-08T15:42:54;13.20;99.90
37956;DHT22;23776;51.592;7.180;2024-03-08T15:45:20;13.10;99.90
37956;DHT22;23776;51.592;7.180;2024-03-08T15:47:51;12.80;99.90
37956;DHT22;23776;51.592;7.180;2024-03-08T15:50:16;12.50;99.90
37956;DHT22;23776;51.592;7.180;2024-03-08T15:52:46;12.20;99.90
37956;DHT22;23776;51.592;7.180;2024-03-08T15:55:19;12.10;99.90
37956;DHT22;23776;51.592;7.180;2024-03-08T15:57:50;12.00;99.90
37956;DHT22;23776;51.592;7.180;2024-03-08T16:00:20;11.80;99.90
37956;DHT22;23776;51.592;7.180;2024-03-08T16:03:05;11.80;99.90
37956;DHT22;23776;51.592;7.180;2024-03-08T16:05:37;11.60;99.90
37956;DHT22;23776;51.592;7.180;2024-03-08T16:08:03;11.60;99.90